sensor_id;sensor_type;location;lat;lon;timestamp;temperature;humidity
79055;DHT22;68452;47.186;-1.528;2023-06-14T00:00:58;24.80;50.20
79055;DHT22;68452;47.186;-1.528;2023-06-14T00:03:24;24.80;50.30
79055;DHT22;68452;47.186;-1.528;2023-06-14T00:05:51;24.80;50.10
79055;DHT22;68452;47.186;-1.528;2023-06-14T00:08:17;24.70;50.10
79055;DHT22;68452;47.186;-1.528;2023-06-14T00:10:44;24.70;50.20
79055;DHT22;68452;47.186;-1.528;2023-06-14T00:13:10;24.70;50.30
79055;DHT22;68452;47.186;-1.528;2023-06-14T00:15:36;24.70;50.20
79055;DHT22;68452;47.186;-1.528;2023-06-14T00:18:03;24.70;50.20
79055;DHT22;68452;47.186;-1.528;2023-06-14T00:20:30;24.70;50.10
79055;DHT22;68452;47.186;-1.528;2023-06-14T00:23:00;24.70;50.00
79055;DHT22;68452;47.186;-1.528;2023-06-14T00:25:27;24.60;50.20
79055;DHT22;68452;47.186;-1.528;2023-06-14T00:27:53;24.60;50.20
79055;DHT22;68452;47.186;-1.528;2023-06-14T00:30:19;24.60;50.20
79055;DHT22;68452;47.186;-1.528;2023-06-14T00:32:46;24.60;50.20
79055;DHT22;68452;47.186;-1.528;2023-06-14T00:35:12;24.50;50.40
79055;DHT22;68452;47.186;-1.528;2023-06-14T00:37:38;24.50;50.50
79055;DHT22;68452;47.186;-1.528;2023-06-14T00:40:05;24.40;50.50
79055;DHT22;68452;47.186;-1.528;2023-06-14T00:42:31;24.40;50.60
79055;DHT22;68452;47.186;-1.528;2023-06-14T00:44:57;24.40;50.60
79055;DHT22;68452;47.186;-1.528;2023-06-14T00:47:23;24.40;50.80
79055;DHT22;68452;47.186;-1.528;2023-06-14T00:49:53;24.40;50.70
79055;DHT22;68452;47.186;-1.528;2023-06-14T00:52:22;24.40;50.90
79055;DHT22;68452;47.186;-1.528;2023-06-14T00:54:49;24.30;50.80
79055;DHT22;68452;47.186;-1.528;2023-06-14T00:57:15;24.30;50.80
79055;DHT22;68452;47.186;-1.528;2023-06-14T00:59:44;24.30;50.70
79055;DHT22;68452;47.186;-1.528;2023-06-14T01:02:12;24.30;50.80
79055;DHT22;68452;47.186;-1.528;2023-06-14T01:04:39;24.30;50.80
79055;DHT22;68452;47.186;-1.528;2023-06-14T01:12:31;24.20;50.70
79055;DHT22;68452;47.186;-1.528;2023-06-14T01:14:59;24.20;50.70
79055;DHT22;68452;47.186;-1.528;2023-06-14T01:17:27;24.20;50.80
79055;DHT22;68452;47.186;-1.528;2023-06-14T01:20:01;24.10;50.80
79055;DHT22;68452;47.186;-1.528;2023-06-14T01:22:28;24.10;50.80
79055;DHT22;68452;47.186;-1.528;2023-06-14T01:24:55;24.10;51.00
79055;DHT22;68452;47.186;-1.528;2023-06-14T01:27:25;24.10;51.00
79055;DHT22;68452;47.186;-1.528;2023-06-14T01:29:55;24.00;51.10
79055;DHT22;68452;47.186;-1.528;2023-06-14T01:32:26;24.00;51.10
79055;DHT22;68452;47.186;-1.528;2023-06-14T01:34:53;24.00;51.10
79055;DHT22;68452;47.186;-1.528;2023-06-14T01:37:20;23.90;51.20
79055;DHT22;68452;47.186;-1.528;2023-06-14T01:39:47;23.90;51.10
79055;DHT22;68452;47.186;-1.528;2023-06-14T01:42:13;23.90;51.20
79055;DHT22;68452;47.186;-1.528;2023-06-14T01:44:42;23.90;51.20
79055;DHT22;68452;47.186;-1.528;2023-06-14T01:47:09;23.90;51.30
79055;DHT22;68452;47.186;-1.528;2023-06-14T01:49:35;23.90;51.20
79055;DHT22;68452;47.186;-1.528;2023-06-14T01:52:01;23.80;51.20
79055;DHT22;68452;47.186;-1.528;2023-06-14T01:54:27;23.80;51.20
79055;DHT22;68452;47.186;-1.528;2023-06-14T01:56:54;23.80;51.30
79055;DHT22;68452;47.186;-1.528;2023-06-14T01:59:20;23.70;51.50
79055;DHT22;68452;47.186;-1.528;2023-06-14T02:01:46;23.70;51.50
79055;DHT22;68452;47.186;-1.528;2023-06-14T02:04:12;23.60;51.60
79055;DHT22;68452;47.186;-1.528;2023-06-14T02:06:38;23.60;51.60
79055;DHT22;68452;47.186;-1.528;2023-06-14T02:09:04;23.60;51.70
79055;DHT22;68452;47.186;-1.528;2023-06-14T02:11:30;23.50;51.70
79055;DHT22;68452;47.186;-1.528;2023-06-14T02:13:56;23.50;51.80
79055;DHT22;68452;47.186;-1.528;2023-06-14T02:16:22;23.50;51.80
79055;DHT22;68452;47.186;-1.528;2023-06-14T02:18:48;23.50;51.80
79055;DHT22;68452;47.186;-1.528;2023-06-14T02:21:14;23.50;51.80
79055;DHT22;68452;47.186;-1.528;2023-06-14T02:23:40;23.40;51.80
79055;DHT22;68452;47.186;-1.528;2023-06-14T02:26:06;23.40;51.90
79055;DHT22;68452;47.186;-1.528;2023-06-14T02:28:32;23.40;51.90
79055;DHT22;68452;47.186;-1.528;2023-06-14T02:30:58;23.40;52.00
79055;DHT22;68452;47.186;-1.528;2023-06-14T02:33:24;23.40;52.10
79055;DHT22;68452;47.186;-1.528;2023-06-14T02:35:50;23.40;52.00
79055;DHT22;68452;47.186;-1.528;2023-06-14T02:38:18;23.40;52.00
79055;DHT22;68452;47.186;-1.528;2023-06-14T02:40:44;23.30;52.00
79055;DHT22;68452;47.186;-1.528;2023-06-14T02:43:10;23.30;52.10
79055;DHT22;68452;47.186;-1.528;2023-06-14T02:45:35;23.30;52.20
79055;DHT22;68452;47.186;-1.528;2023-06-14T02:48:01;23.20;52.20
79055;DHT22;68452;47.186;-1.528;2023-06-14T02:50:27;23.20;52.20
79055;DHT22;68452;47.186;-1.528;2023-06-14T02:52:54;23.20;52.30
79055;DHT22;68452;47.186;-1.528;2023-06-14T02:55:21;23.20;52.30
79055;DHT22;68452;47.186;-1.528;2023-06-14T02:57:47;23.20;52.40
79055;DHT22;68452;47.186;-1.528;2023-06-14T03:00:13;23.20;52.50
79055;DHT22;68452;47.186;-1.528;2023-06-14T03:02:40;23.20;52.40
79055;DHT22;68452;47.186;-1.528;2023-06-14T03:05:08;23.20;52.40
79055;DHT22;68452;47.186;-1.528;2023-06-14T03:07:35;23.20;52.40
79055;DHT22;68452;47.186;-1.528;2023-06-14T03:10:08;23.10;52.40
79055;DHT22;68452;47.186;-1.528;2023-06-14T03:12:35;23.10;52.50
79055;DHT22;68452;47.186;-1.528;2023-06-14T03:15:01;23.00;52.50
79055;DHT22;68452;47.186;-1.528;2023-06-14T03:17:27;23.00;52.50
79055;DHT22;68452;47.186;-1.528;2023-06-14T03:19:55;23.00;52.60
79055;DHT22;68452;47.186;-1.528;2023-06-14T03:22:21;23.00;52.70
79055;DHT22;68452;47.186;-1.528;2023-06-14T03:24:47;22.90;52.70
79055;DHT22;68452;47.186;-1.528;2023-06-14T03:27:13;22.90;52.70
79055;DHT22;68452;47.186;-1.528;2023-06-14T03:29:39;23.00;52.70
79055;DHT22;68452;47.186;-1.528;2023-06-14T03:32:05;23.00;52.70
79055;DHT22;68452;47.186;-1.528;2023-06-14T03:34:31;22.90;52.70
79055;DHT22;68452;47.186;-1.528;2023-06-14T03:36:57;22.90;52.90
79055;DHT22;68452;47.186;-1.528;2023-06-14T03:39:23;22.90;52.90
79055;DHT22;68452;47.186;-1.528;2023-06-14T03:41:48;22.80;53.00
79055;DHT22;68452;47.186;-1.528;2023-06-14T03:44:16;22.80;53.10
79055;DHT22;68452;47.186;-1.528;2023-06-14T03:46:43;22.80;53.20
79055;DHT22;68452;47.186;-1.528;2023-06-14T03:49:09;22.80;53.20
79055;DHT22;68452;47.186;-1.528;2023-06-14T03:51:36;22.80;53.20
79055;DHT22;68452;47.186;-1.528;2023-06-14T03:54:02;22.80;53.20
79055;DHT22;68452;47.186;-1.528;2023-06-14T03:56:27;22.80;53.30
79055;DHT22;68452;47.186;-1.528;2023-06-14T03:58:53;22.70;53.40
79055;DHT22;68452;47.186;-1.528;2023-06-14T04:01:19;22.70;53.30
79055;DHT22;68452;47.186;-1.528;2023-06-14T04:03:45;22.70;53.40
79055;DHT22;68452;47.186;-1.528;2023-06-14T04:06:11;22.70;53.50
79055;DHT22;68452;47.186;-1.528;2023-06-14T04:08:38;22.60;53.60
79055;DHT22;68452;47.186;-1.528;2023-06-14T04:11:05;22.60;53.50
79055;DHT22;68452;47.186;-1.528;2023-06-14T04:13:31;22.60;53.60
79055;DHT22;68452;47.186;-1.528;2023-06-14T04:15:57;22.60;53.70
79055;DHT22;68452;47.186;-1.528;2023-06-14T04:18:24;22.60;53.60
79055;DHT22;68452;47.186;-1.528;2023-06-14T04:20:49;22.60;53.70
79055;DHT22;68452;47.186;-1.528;2023-06-14T04:23:17;22.60;53.80
79055;DHT22;68452;47.186;-1.528;2023-06-14T04:25:46;22.50;53.80
79055;DHT22;68452;47.186;-1.528;2023-06-14T04:28:14;22.50;53.80
79055;DHT22;68452;47.186;-1.528;2023-06-14T04:30:44;22.50;53.70
79055;DHT22;68452;47.186;-1.528;2023-06-14T04:33:10;22.50;53.80
79055;DHT22;68452;47.186;-1.528;2023-06-14T04:35:36;22.50;53.90
79055;DHT22;68452;47.186;-1.528;2023-06-14T04:38:05;22.50;54.00
79055;DHT22;68452;47.186;-1.528;2023-06-14T04:40:31;22.50;54.00
79055;DHT22;68452;47.186;-1.528;2023-06-14T04:42:59;22.40;53.90
79055;DHT22;68452;47.186;-1.528;2023-06-14T04:45:25;22.50;53.90
79055;DHT22;68452;47.186;-1.528;2023-06-14T04:47:59;22.50;53.80
79055;DHT22;68452;47.186;-1.528;2023-06-14T04:50:25;22.40;53.70
79055;DHT22;68452;47.186;-1.528;2023-06-14T04:52:52;22.40;53.80
79055;DHT22;68452;47.186;-1.528;2023-06-14T04:55:18;22.40;53.90
79055;DHT22;68452;47.186;-1.528;2023-06-14T04:57:45;22.40;53.90
79055;DHT22;68452;47.186;-1.528;2023-06-14T05:00:11;22.40;53.90
79055;DHT22;68452;47.186;-1.528;2023-06-14T05:02:38;22.40;54.00
79055;DHT22;68452;47.186;-1.528;2023-06-14T05:05:04;22.40;53.90
79055;DHT22;68452;47.186;-1.528;2023-06-14T05:07:33;22.40;54.00
79055;DHT22;68452;47.186;-1.528;2023-06-14T05:10:01;22.40;54.00
79055;DHT22;68452;47.186;-1.528;2023-06-14T05:12:27;22.40;54.10
79055;DHT22;68452;47.186;-1.528;2023-06-14T05:14:54;22.40;54.00
79055;DHT22;68452;47.186;-1.528;2023-06-14T05:17:20;22.40;54.10
79055;DHT22;68452;47.186;-1.528;2023-06-14T05:19:46;22.40;54.00
79055;DHT22;68452;47.186;-1.528;2023-06-14T05:22:12;22.40;54.00
79055;DHT22;68452;47.186;-1.528;2023-06-14T05:24:38;22.40;54.10
79055;DHT22;68452;47.186;-1.528;2023-06-14T05:27:04;22.40;54.10
79055;DHT22;68452;47.186;-1.528;2023-06-14T05:29:30;22.40;54.20
79055;DHT22;68452;47.186;-1.528;2023-06-14T05:31:56;22.40;54.20
79055;DHT22;68452;47.186;-1.528;2023-06-14T05:34:22;22.40;54.20
79055;DHT22;68452;47.186;-1.528;2023-06-14T05:36:48;22.40;54.20
79055;DHT22;68452;47.186;-1.528;2023-06-14T05:39:14;22.40;54.20
79055;DHT22;68452;47.186;-1.528;2023-06-14T05:41:40;22.50;54.20
79055;DHT22;68452;47.186;-1.528;2023-06-14T05:44:05;22.40;54.20
79055;DHT22;68452;47.186;-1.528;2023-06-14T05:46:33;22.40;54.30
79055;DHT22;68452;47.186;-1.528;2023-06-14T05:48:58;22.40;54.30
79055;DHT22;68452;47.186;-1.528;2023-06-14T05:51:24;22.40;54.40
79055;DHT22;68452;47.186;-1.528;2023-06-14T05:53:50;22.50;54.50
79055;DHT22;68452;47.186;-1.528;2023-06-14T05:56:17;22.40;54.50
79055;DHT22;68452;47.186;-1.528;2023-06-14T05:58:44;22.50;54.50
79055;DHT22;68452;47.186;-1.528;2023-06-14T06:01:10;22.50;54.30
79055;DHT22;68452;47.186;-1.528;2023-06-14T06:03:36;22.40;54.40
79055;DHT22;68452;47.186;-1.528;2023-06-14T06:06:02;22.40;54.40
79055;DHT22;68452;47.186;-1.528;2023-06-14T06:08:29;22.40;54.50
79055;DHT22;68452;47.186;-1.528;2023-06-14T06:10:55;22.50;54.50
79055;DHT22;68452;47.186;-1.528;2023-06-14T06:13:22;22.50;54.60
79055;DHT22;68452;47.186;-1.528;2023-06-14T06:15:48;22.50;54.60
79055;DHT22;68452;47.186;-1.528;2023-06-14T06:18:13;22.50;54.60
79055;DHT22;68452;47.186;-1.528;2023-06-14T06:20:39;22.60;54.70
79055;DHT22;68452;47.186;-1.528;2023-06-14T06:23:05;22.60;54.80
79055;DHT22;68452;47.186;-1.528;2023-06-14T06:25:31;22.70;54.80
79055;DHT22;68452;47.186;-1.528;2023-06-14T06:27:58;22.70;54.70
79055;DHT22;68452;47.186;-1.528;2023-06-14T06:30:24;22.80;54.60
79055;DHT22;68452;47.186;-1.528;2023-06-14T06:32:50;22.80;54.60
79055;DHT22;68452;47.186;-1.528;2023-06-14T06:35:16;22.80;54.50
79055;DHT22;68452;47.186;-1.528;2023-06-14T06:37:43;22.80;54.40
79055;DHT22;68452;47.186;-1.528;2023-06-14T06:40:09;22.90;54.40
79055;DHT22;68452;47.186;-1.528;2023-06-14T06:42:35;22.90;54.50
79055;DHT22;68452;47.186;-1.528;2023-06-14T06:45:01;22.90;54.40
79055;DHT22;68452;47.186;-1.528;2023-06-14T06:47:27;22.90;54.40
79055;DHT22;68452;47.186;-1.528;2023-06-14T06:49:53;23.00;54.50
79055;DHT22;68452;47.186;-1.528;2023-06-14T06:52:19;23.00;54.50
79055;DHT22;68452;47.186;-1.528;2023-06-14T06:54:44;23.10;54.50
79055;DHT22;68452;47.186;-1.528;2023-06-14T06:57:10;23.20;54.40
79055;DHT22;68452;47.186;-1.528;2023-06-14T06:59:37;23.20;54.30
79055;DHT22;68452;47.186;-1.528;2023-06-14T07:02:03;23.20;54.20
79055;DHT22;68452;47.186;-1.528;2023-06-14T07:04:29;23.30;54.30
79055;DHT22;68452;47.186;-1.528;2023-06-14T07:06:55;23.40;54.20
79055;DHT22;68452;47.186;-1.528;2023-06-14T07:09:21;23.40;54.20
79055;DHT22;68452;47.186;-1.528;2023-06-14T07:11:47;23.50;54.20
79055;DHT22;68452;47.186;-1.528;2023-06-14T07:14:13;23.50;54.10
79055;DHT22;68452;47.186;-1.528;2023-06-14T07:16:39;23.60;54.00
79055;DHT22;68452;47.186;-1.528;2023-06-14T07:19:06;23.60;54.10
79055;DHT22;68452;47.186;-1.528;2023-06-14T07:21:32;23.60;54.00
79055;DHT22;68452;47.186;-1.528;2023-06-14T07:23:58;23.70;54.00
79055;DHT22;68452;47.186;-1.528;2023-06-14T07:26:24;23.80;53.80
79055;DHT22;68452;47.186;-1.528;2023-06-14T07:28:50;23.80;53.90
79055;DHT22;68452;47.186;-1.528;2023-06-14T07:31:16;23.80;53.70
79055;DHT22;68452;47.186;-1.528;2023-06-14T07:33:43;23.90;53.80
79055;DHT22;68452;47.186;-1.528;2023-06-14T07:36:09;23.90;53.80
79055;DHT22;68452;47.186;-1.528;2023-06-14T07:38:35;23.90;53.70
79055;DHT22;68452;47.186;-1.528;2023-06-14T07:41:02;24.00;53.90
79055;DHT22;68452;47.186;-1.528;2023-06-14T07:43:28;24.00;53.90
79055;DHT22;68452;47.186;-1.528;2023-06-14T07:45:55;24.10;53.80
79055;DHT22;68452;47.186;-1.528;2023-06-14T07:48:20;24.10;53.70
79055;DHT22;68452;47.186;-1.528;2023-06-14T07:50:46;24.20;53.40
79055;DHT22;68452;47.186;-1.528;2023-06-14T07:53:12;24.20;53.50
79055;DHT22;68452;47.186;-1.528;2023-06-14T07:55:38;24.10;53.40
79055;DHT22;68452;47.186;-1.528;2023-06-14T07:58:08;24.10;53.90
79055;DHT22;68452;47.186;-1.528;2023-06-14T08:00:34;24.20;53.90
79055;DHT22;68452;47.186;-1.528;2023-06-14T08:03:00;24.20;54.00
79055;DHT22;68452;47.186;-1.528;2023-06-14T08:05:27;24.30;53.90
79055;DHT22;68452;47.186;-1.528;2023-06-14T08:07:53;24.40;53.80
79055;DHT22;68452;47.186;-1.528;2023-06-14T08:10:20;24.40;53.70
79055;DHT22;68452;47.186;-1.528;2023-06-14T08:12:46;24.40;53.20
79055;DHT22;68452;47.186;-1.528;2023-06-14T08:15:12;24.40;53.30
79055;DHT22;68452;47.186;-1.528;2023-06-14T08:17:38;24.40;53.40
79055;DHT22;68452;47.186;-1.528;2023-06-14T08:20:04;24.50;53.30
79055;DHT22;68452;47.186;-1.528;2023-06-14T08:22:31;24.40;53.10
79055;DHT22;68452;47.186;-1.528;2023-06-14T08:25:00;24.50;53.50
79055;DHT22;68452;47.186;-1.528;2023-06-14T08:27:27;24.50;53.40
79055;DHT22;68452;47.186;-1.528;2023-06-14T08:29:53;24.50;53.00
79055;DHT22;68452;47.186;-1.528;2023-06-14T08:32:20;24.50;53.30
79055;DHT22;68452;47.186;-1.528;2023-06-14T08:34:46;24.60;53.20
79055;DHT22;68452;47.186;-1.528;2023-06-14T08:37:12;24.70;53.30
79055;DHT22;68452;47.186;-1.528;2023-06-14T08:39:38;24.60;53.10
79055;DHT22;68452;47.186;-1.528;2023-06-14T08:42:06;24.70;53.10
79055;DHT22;68452;47.186;-1.528;2023-06-14T08:44:33;24.80;53.10
79055;DHT22;68452;47.186;-1.528;2023-06-14T08:47:00;24.90;53.30
79055;DHT22;68452;47.186;-1.528;2023-06-14T08:49:26;24.80;52.90
79055;DHT22;68452;47.186;-1.528;2023-06-14T08:51:59;24.90;52.40
79055;DHT22;68452;47.186;-1.528;2023-06-14T08:54:28;24.90;52.30
79055;DHT22;68452;47.186;-1.528;2023-06-14T08:56:56;25.00;52.30
79055;DHT22;68452;47.186;-1.528;2023-06-14T08:59:26;25.00;52.10
79055;DHT22;68452;47.186;-1.528;2023-06-14T09:01:53;25.00;52.10
79055;DHT22;68452;47.186;-1.528;2023-06-14T09:04:26;25.10;52.30
79055;DHT22;68452;47.186;-1.528;2023-06-14T09:06:55;25.10;51.90
79055;DHT22;68452;47.186;-1.528;2023-06-14T09:09:22;25.10;51.80
79055;DHT22;68452;47.186;-1.528;2023-06-14T09:11:52;25.20;51.50
79055;DHT22;68452;47.186;-1.528;2023-06-14T09:14:23;25.20;51.10
79055;DHT22;68452;47.186;-1.528;2023-06-14T09:16:52;25.20;51.10
79055;DHT22;68452;47.186;-1.528;2023-06-14T09:19:23;25.30;51.10
79055;DHT22;68452;47.186;-1.528;2023-06-14T09:21:50;25.30;51.20
79055;DHT22;68452;47.186;-1.528;2023-06-14T09:24:18;25.40;51.40
79055;DHT22;68452;47.186;-1.528;2023-06-14T09:26:47;25.40;50.90
79055;DHT22;68452;47.186;-1.528;2023-06-14T09:29:13;25.50;50.70
79055;DHT22;68452;47.186;-1.528;2023-06-14T09:31:39;25.50;50.10
79055;DHT22;68452;47.186;-1.528;2023-06-14T09:34:05;25.60;50.30
79055;DHT22;68452;47.186;-1.528;2023-06-14T09:36:32;25.70;50.30
79055;DHT22;68452;47.186;-1.528;2023-06-14T09:39:00;25.70;50.20
79055;DHT22;68452;47.186;-1.528;2023-06-14T09:41:40;25.70;50.20
79055;DHT22;68452;47.186;-1.528;2023-06-14T09:44:08;25.80;50.10
79055;DHT22;68452;47.186;-1.528;2023-06-14T09:46:35;25.80;49.80
79055;DHT22;68452;47.186;-1.528;2023-06-14T09:49:01;25.90;49.60
79055;DHT22;68452;47.186;-1.528;2023-06-14T09:51:28;26.00;48.90
79055;DHT22;68452;47.186;-1.528;2023-06-14T09:54:02;26.10;47.90
79055;DHT22;68452;47.186;-1.528;2023-06-14T09:56:34;26.10;47.10
79055;DHT22;68452;47.186;-1.528;2023-06-14T09:59:04;26.20;46.90
79055;DHT22;68452;47.186;-1.528;2023-06-14T10:01:31;26.20;46.60
79055;DHT22;68452;47.186;-1.528;2023-06-14T10:04:07;26.30;46.60
79055;DHT22;68452;47.186;-1.528;2023-06-14T10:06:36;26.40;45.70
79055;DHT22;68452;47.186;-1.528;2023-06-14T10:09:04;26.50;45.70
79055;DHT22;68452;47.186;-1.528;2023-06-14T10:11:33;26.50;45.80
79055;DHT22;68452;47.186;-1.528;2023-06-14T10:14:02;26.60;44.80
79055;DHT22;68452;47.186;-1.528;2023-06-14T10:16:45;26.70;45.00
79055;DHT22;68452;47.186;-1.528;2023-06-14T10:19:34;26.90;45.00
79055;DHT22;68452;47.186;-1.528;2023-06-14T10:24:42;27.30;43.90
79055;DHT22;68452;47.186;-1.528;2023-06-14T10:27:08;27.40;43.60
79055;DHT22;68452;47.186;-1.528;2023-06-14T10:32:22;27.70;43.00
79055;DHT22;68452;47.186;-1.528;2023-06-14T10:34:58;27.90;41.60
79055;DHT22;68452;47.186;-1.528;2023-06-14T10:37:24;28.30;42.00
79055;DHT22;68452;47.186;-1.528;2023-06-14T10:39:50;28.60;40.20
79055;DHT22;68452;47.186;-1.528;2023-06-14T10:42:16;28.80;40.50
79055;DHT22;68452;47.186;-1.528;2023-06-14T10:44:55;28.80;40.50
79055;DHT22;68452;47.186;-1.528;2023-06-14T10:47:30;28.70;41.20
79055;DHT22;68452;47.186;-1.528;2023-06-14T10:50:11;28.60;41.50
79055;DHT22;68452;47.186;-1.528;2023-06-14T10:52:43;28.80;40.90
79055;DHT22;68452;47.186;-1.528;2023-06-14T10:55:16;29.50;39.90
79055;DHT22;68452;47.186;-1.528;2023-06-14T10:57:48;30.60;38.20
79055;DHT22;68452;47.186;-1.528;2023-06-14T11:00:18;31.40;36.70
79055;DHT22;68452;47.186;-1.528;2023-06-14T11:05:45;31.20;37.70
79055;DHT22;68452;47.186;-1.528;2023-06-14T11:11:18;30.60;37.80
79055;DHT22;68452;47.186;-1.528;2023-06-14T11:13:47;30.00;38.10
79055;DHT22;68452;47.186;-1.528;2023-06-14T11:16:17;29.80;39.30
79055;DHT22;68452;47.186;-1.528;2023-06-14T11:18:44;29.60;40.30
79055;DHT22;68452;47.186;-1.528;2023-06-14T11:21:11;29.50;40.20
79055;DHT22;68452;47.186;-1.528;2023-06-14T11:23:40;29.30;40.10
79055;DHT22;68452;47.186;-1.528;2023-06-14T11:26:06;29.20;40.60
79055;DHT22;68452;47.186;-1.528;2023-06-14T11:28:39;29.30;39.60
79055;DHT22;68452;47.186;-1.528;2023-06-14T11:31:05;29.70;38.00
79055;DHT22;68452;47.186;-1.528;2023-06-14T11:33:31;29.90;36.40
79055;DHT22;68452;47.186;-1.528;2023-06-14T11:35:57;29.70;37.20
79055;DHT22;68452;47.186;-1.528;2023-06-14T11:38:24;29.50;37.20
79055;DHT22;68452;47.186;-1.528;2023-06-14T11:40:50;29.60;36.70
79055;DHT22;68452;47.186;-1.528;2023-06-14T11:43:16;29.70;36.40
79055;DHT22;68452;47.186;-1.528;2023-06-14T11:45:42;29.60;36.40
79055;DHT22;68452;47.186;-1.528;2023-06-14T11:48:08;29.50;36.90
79055;DHT22;68452;47.186;-1.528;2023-06-14T11:50:38;29.60;37.00
79055;DHT22;68452;47.186;-1.528;2023-06-14T11:53:04;29.40;36.80
79055;DHT22;68452;47.186;-1.528;2023-06-14T11:55:37;29.30;37.00
79055;DHT22;68452;47.186;-1.528;2023-06-14T11:58:03;29.30;37.20
79055;DHT22;68452;47.186;-1.528;2023-06-14T12:00:30;29.30;36.30
79055;DHT22;68452;47.186;-1.528;2023-06-14T12:02:56;29.30;36.50
79055;DHT22;68452;47.186;-1.528;2023-06-14T12:05:23;29.30;36.80
79055;DHT22;68452;47.186;-1.528;2023-06-14T12:07:49;29.30;36.10
79055;DHT22;68452;47.186;-1.528;2023-06-14T12:10:16;29.20;36.30
79055;DHT22;68452;47.186;-1.528;2023-06-14T12:12:43;29.30;36.90
79055;DHT22;68452;47.186;-1.528;2023-06-14T12:15:09;29.40;36.30
79055;DHT22;68452;47.186;-1.528;2023-06-14T12:17:38;29.40;36.80
79055;DHT22;68452;47.186;-1.528;2023-06-14T12:20:13;29.50;37.00
79055;DHT22;68452;47.186;-1.528;2023-06-14T12:22:56;29.50;36.40
79055;DHT22;68452;47.186;-1.528;2023-06-14T12:25:34;29.40;36.10
79055;DHT22;68452;47.186;-1.528;2023-06-14T12:30:31;29.40;36.30
79055;DHT22;68452;47.186;-1.528;2023-06-14T12:32:57;29.40;36.30
79055;DHT22;68452;47.186;-1.528;2023-06-14T12:35:23;29.50;36.30
79055;DHT22;68452;47.186;-1.528;2023-06-14T12:37:49;29.50;36.00
79055;DHT22;68452;47.186;-1.528;2023-06-14T12:40:15;29.40;36.40
79055;DHT22;68452;47.186;-1.528;2023-06-14T12:42:42;29.30;36.20
79055;DHT22;68452;47.186;-1.528;2023-06-14T12:45:08;29.20;36.50
79055;DHT22;68452;47.186;-1.528;2023-06-14T12:47:34;29.10;36.80
79055;DHT22;68452;47.186;-1.528;2023-06-14T12:50:01;29.00;36.90
79055;DHT22;68452;47.186;-1.528;2023-06-14T12:52:27;28.90;37.40
79055;DHT22;68452;47.186;-1.528;2023-06-14T12:54:53;28.90;37.80
79055;DHT22;68452;47.186;-1.528;2023-06-14T12:57:18;28.80;37.40
79055;DHT22;68452;47.186;-1.528;2023-06-14T12:59:44;28.80;37.30
79055;DHT22;68452;47.186;-1.528;2023-06-14T13:02:17;28.80;37.80
79055;DHT22;68452;47.186;-1.528;2023-06-14T13:04:43;28.90;37.80
79055;DHT22;68452;47.186;-1.528;2023-06-14T13:07:10;29.00;37.50
79055;DHT22;68452;47.186;-1.528;2023-06-14T13:09:40;29.20;37.10
79055;DHT22;68452;47.186;-1.528;2023-06-14T13:12:07;29.20;37.40
79055;DHT22;68452;47.186;-1.528;2023-06-14T13:14:33;29.20;36.50
79055;DHT22;68452;47.186;-1.528;2023-06-14T13:16:59;29.50;36.10
79055;DHT22;68452;47.186;-1.528;2023-06-14T13:19:25;30.20;35.60
79055;DHT22;68452;47.186;-1.528;2023-06-14T13:21:51;30.70;33.80
79055;DHT22;68452;47.186;-1.528;2023-06-14T13:24:17;30.90;32.20
79055;DHT22;68452;47.186;-1.528;2023-06-14T13:26:43;31.10;32.10
79055;DHT22;68452;47.186;-1.528;2023-06-14T13:29:08;31.10;32.10
79055;DHT22;68452;47.186;-1.528;2023-06-14T13:31:34;30.70;32.90
79055;DHT22;68452;47.186;-1.528;2023-06-14T13:34:00;30.60;33.30
79055;DHT22;68452;47.186;-1.528;2023-06-14T13:36:26;30.80;33.50
79055;DHT22;68452;47.186;-1.528;2023-06-14T13:38:52;31.00;32.90
79055;DHT22;68452;47.186;-1.528;2023-06-14T13:41:20;31.00;32.70
79055;DHT22;68452;47.186;-1.528;2023-06-14T13:43:46;31.00;33.70
79055;DHT22;68452;47.186;-1.528;2023-06-14T13:46:13;30.90;33.60
79055;DHT22;68452;47.186;-1.528;2023-06-14T13:48:39;30.80;34.10
79055;DHT22;68452;47.186;-1.528;2023-06-14T13:51:05;30.70;34.60
79055;DHT22;68452;47.186;-1.528;2023-06-14T13:53:31;30.70;34.20
79055;DHT22;68452;47.186;-1.528;2023-06-14T13:55:57;30.70;34.20
79055;DHT22;68452;47.186;-1.528;2023-06-14T13:58:23;30.90;33.60
79055;DHT22;68452;47.186;-1.528;2023-06-14T14:00:49;31.00;33.20
79055;DHT22;68452;47.186;-1.528;2023-06-14T14:03:15;30.90;32.20
79055;DHT22;68452;47.186;-1.528;2023-06-14T14:05:41;30.80;31.10
79055;DHT22;68452;47.186;-1.528;2023-06-14T14:08:07;30.80;31.60
79055;DHT22;68452;47.186;-1.528;2023-06-14T14:10:33;30.80;31.70
79055;DHT22;68452;47.186;-1.528;2023-06-14T14:12:58;31.40;31.40
79055;DHT22;68452;47.186;-1.528;2023-06-14T14:15:25;32.80;28.20
79055;DHT22;68452;47.186;-1.528;2023-06-14T14:17:51;34.10;27.70
79055;DHT22;68452;47.186;-1.528;2023-06-14T14:20:19;35.00;27.00
79055;DHT22;68452;47.186;-1.528;2023-06-14T14:22:45;35.10;26.80
79055;DHT22;68452;47.186;-1.528;2023-06-14T14:25:10;34.90;26.60
79055;DHT22;68452;47.186;-1.528;2023-06-14T14:27:37;34.50;27.80
79055;DHT22;68452;47.186;-1.528;2023-06-14T14:30:04;34.10;28.60
79055;DHT22;68452;47.186;-1.528;2023-06-14T14:32:30;33.80;29.50
79055;DHT22;68452;47.186;-1.528;2023-06-14T14:34:55;33.60;28.80
79055;DHT22;68452;47.186;-1.528;2023-06-14T14:37:21;33.30;29.00
79055;DHT22;68452;47.186;-1.528;2023-06-14T14:39:47;33.10;29.20
79055;DHT22;68452;47.186;-1.528;2023-06-14T14:42:13;32.90;29.50
79055;DHT22;68452;47.186;-1.528;2023-06-14T14:44:39;32.70;32.40
79055;DHT22;68452;47.186;-1.528;2023-06-14T14:47:05;32.50;33.80
79055;DHT22;68452;47.186;-1.528;2023-06-14T14:49:32;32.10;34.30
79055;DHT22;68452;47.186;-1.528;2023-06-14T14:51:58;31.90;34.60
79055;DHT22;68452;47.186;-1.528;2023-06-14T14:54:24;31.80;34.40
79055;DHT22;68452;47.186;-1.528;2023-06-14T14:56:51;31.70;34.30
79055;DHT22;68452;47.186;-1.528;2023-06-14T14:59:17;31.40;34.20
79055;DHT22;68452;47.186;-1.528;2023-06-14T15:01:44;31.30;34.90
79055;DHT22;68452;47.186;-1.528;2023-06-14T15:04:11;31.30;35.60
79055;DHT22;68452;47.186;-1.528;2023-06-14T15:06:37;31.30;35.50
79055;DHT22;68452;47.186;-1.528;2023-06-14T15:09:05;31.30;35.90
79055;DHT22;68452;47.186;-1.528;2023-06-14T15:11:31;31.30;35.90
79055;DHT22;68452;47.186;-1.528;2023-06-14T15:13:57;31.10;35.50
79055;DHT22;68452;47.186;-1.528;2023-06-14T15:16:23;31.00;35.40
79055;DHT22;68452;47.186;-1.528;2023-06-14T15:18:49;30.90;34.70
79055;DHT22;68452;47.186;-1.528;2023-06-14T15:21:15;30.80;34.10
79055;DHT22;68452;47.186;-1.528;2023-06-14T15:23:41;30.80;34.30
79055;DHT22;68452;47.186;-1.528;2023-06-14T15:26:06;30.80;34.30
79055;DHT22;68452;47.186;-1.528;2023-06-14T15:28:32;30.80;33.30
79055;DHT22;68452;47.186;-1.528;2023-06-14T15:31:02;30.80;33.30
79055;DHT22;68452;47.186;-1.528;2023-06-14T15:33:28;30.80;33.30